createdAt,value
2019-04-25T00:00:36.535Z,34.80
2019-04-25T00:03:07.657Z,34.03
2019-04-25T00:05:38.745Z,36.57
2019-04-25T00:08:09.115Z,16.47
2019-04-25T00:10:39.705Z,18.50
2019-04-25T00:13:11.759Z,16.50
2019-04-25T00:15:44.603Z,13.87
2019-04-25T00:18:14.446Z,10.13
2019-04-25T00:20:49.253Z,20.13
2019-04-25T00:23:19.648Z,5.63
2019-04-25T00:26:05.398Z,15.43
2019-04-25T00:28:35.724Z,6.57
2019-04-25T00:31:06.908Z,7.13
2019-04-25T00:33:37.309Z,6.17
2019-04-25T00:36:07.808Z,7.20
2019-04-25T00:38:38.142Z,6.30
2019-04-25T00:41:08.424Z,8.87
2019-04-25T00:43:38.793Z,12.30
2019-04-25T00:46:11.298Z,5.10
2019-04-25T00:48:43.170Z,7.07
2019-04-25T00:51:13.831Z,5.60
2019-04-25T00:53:44.644Z,7.97
2019-04-25T00:56:15.324Z,6.50
2019-04-25T00:59:14.021Z,7.00
2019-04-25T01:01:53.895Z,6.10
2019-04-25T01:04:26.212Z,6.73
2019-04-25T01:06:56.553Z,9.53
2019-04-25T01:09:28.157Z,5.67
2019-04-25T01:11:58.509Z,6.07
2019-04-25T01:14:28.862Z,5.57
2019-04-25T01:16:59.240Z,6.37
2019-04-25T01:19:29.545Z,6.53
2019-04-25T01:21:59.912Z,5.63
2019-04-25T01:24:30.249Z,7.50
2019-04-25T01:27:00.794Z,6.67
2019-04-25T01:29:31.065Z,4.80
2019-04-25T01:32:03.244Z,5.63
2019-04-25T01:34:58.592Z,7.97
2019-04-25T01:37:51.713Z,9.30
2019-04-25T01:40:41.113Z,6.83
2019-04-25T01:43:43.645Z,5.70
2019-04-25T01:46:16.209Z,6.03
2019-04-25T01:48:46.584Z,6.20
2019-04-25T01:51:17.103Z,9.33
2019-04-25T01:53:48.993Z,7.30
2019-04-25T01:56:19.512Z,6.97
2019-04-25T01:58:49.888Z,9.13
2019-04-25T02:01:20.785Z,6.77
2019-04-25T02:03:51.285Z,7.20
2019-04-25T02:06:23.179Z,6.83
2019-04-25T02:08:55.257Z,6.63
2019-04-25T02:11:43.948Z,6.73
2019-04-25T02:14:14.644Z,7.03
2019-04-25T02:16:45.115Z,5.63
2019-04-25T02:19:15.466Z,7.53
2019-04-25T02:21:46.021Z,5.30
2019-04-25T02:24:16.312Z,7.47
2019-04-25T02:26:46.593Z,6.20
2019-04-25T02:29:16.939Z,7.20
2019-04-25T02:31:47.321Z,7.07
2019-04-25T02:34:18.230Z,8.17
2019-04-25T02:36:48.636Z,9.20
2019-04-25T02:39:20.786Z,14.83
2019-04-25T02:41:51.205Z,9.27
2019-04-25T02:44:21.627Z,7.53
2019-04-25T02:47:08.150Z,8.33
2019-04-25T02:50:09.229Z,10.17
2019-04-25T02:52:44.415Z,11.80
2019-04-25T02:55:28.131Z,9.20
2019-04-25T02:57:46.882Z,5.90
2019-04-25T03:00:46.065Z,8.60
2019-04-25T03:03:02.600Z,15.57
2019-04-25T03:05:35.458Z,6.90
2019-04-25T03:08:09.928Z,6.90
2019-04-25T03:10:37.610Z,8.47
2019-04-25T03:13:11.493Z,6.80
2019-04-25T03:15:40.141Z,6.53
2019-04-25T03:18:13.059Z,6.60
2019-04-25T03:20:49.297Z,6.57
2019-04-25T03:23:42.868Z,9.23
2019-04-25T03:26:14.018Z,7.23
2019-04-25T03:28:44.493Z,7.53
2019-04-25T03:31:22.040Z,8.10
2019-04-25T03:33:46.820Z,8.20
2019-04-25T03:36:17.322Z,8.23
2019-04-25T03:38:47.574Z,14.20
2019-04-25T03:41:17.861Z,12.20
2019-04-25T03:43:48.134Z,9.67
2019-04-25T03:46:19.329Z,9.53
2019-04-25T03:48:49.648Z,8.60
2019-04-25T03:51:19.913Z,8.00
2019-04-25T03:53:50.341Z,9.17
2019-04-25T03:56:20.682Z,11.17
2019-04-25T03:58:52.124Z,8.70
2019-04-25T04:01:24.151Z,13.07
2019-04-25T04:03:54.418Z,9.73
2019-04-25T04:06:24.902Z,8.07
2019-04-25T04:08:55.278Z,7.17
2019-04-25T04:11:25.636Z,9.90
2019-04-25T04:13:56.163Z,9.87
2019-04-25T04:16:30.210Z,9.50
2019-04-25T04:19:00.583Z,8.17
2019-04-25T04:21:49.529Z,7.27
2019-04-25T04:24:25.954Z,8.43
2019-04-25T04:27:18.498Z,7.33
2019-04-25T04:29:48.837Z,12.37
2019-04-25T04:32:19.097Z,12.40
2019-04-25T04:34:49.492Z,9.80
2019-04-25T04:37:19.765Z,8.20
2019-04-25T04:39:50.070Z,8.70
2019-04-25T04:42:20.387Z,7.47
2019-04-25T04:44:50.677Z,11.07
2019-04-25T04:47:21.012Z,9.90
2019-04-25T04:49:51.340Z,7.33
2019-04-25T04:52:24.060Z,7.97
2019-04-25T04:55:03.764Z,5.37
2019-04-25T04:57:31.944Z,8.27
2019-04-25T04:59:57.663Z,9.07
2019-04-25T05:02:45.772Z,6.07
2019-04-25T05:05:34.426Z,7.80
2019-04-25T05:08:11.063Z,6.37
2019-04-25T05:10:43.071Z,7.80
2019-04-25T05:13:15.389Z,7.20
2019-04-25T05:15:45.623Z,6.27
2019-04-25T05:18:31.593Z,7.50
2019-04-25T05:20:47.921Z,7.23
2019-04-25T05:23:18.861Z,10.87
2019-04-25T05:25:49.420Z,14.00
2019-04-25T05:28:19.681Z,9.77
2019-04-25T05:31:16.806Z,9.77
2019-04-25T05:33:46.877Z,7.73
2019-04-25T05:36:17.613Z,5.40
2019-04-25T05:38:48.877Z,10.33
2019-04-25T05:41:46.965Z,7.27
2019-04-25T05:44:17.612Z,8.17
2019-04-25T05:46:47.890Z,8.97
2019-04-25T05:49:19.089Z,7.43
2019-04-25T05:51:49.724Z,8.03
2019-04-25T05:54:20.599Z,8.40
2019-04-25T05:56:51.046Z,12.83
2019-04-25T05:59:21.897Z,5.97
2019-04-25T06:01:53.811Z,6.83
2019-04-25T06:04:25.660Z,6.60
2019-04-25T06:06:56.298Z,5.70
2019-04-25T06:09:54.721Z,9.20
2019-04-25T06:12:44.238Z,7.97
2019-04-25T06:15:15.314Z,9.40
2019-04-25T06:18:03.911Z,7.60
2019-04-25T06:20:36.633Z,9.07
2019-04-25T06:23:41.119Z,11.80
2019-04-25T06:26:22.414Z,8.33
2019-04-25T06:28:53.810Z,6.90
2019-04-25T06:31:17.326Z,5.87
2019-04-25T06:33:47.795Z,8.03
2019-04-25T06:36:20.310Z,10.57
2019-04-25T06:38:51.364Z,10.07
2019-04-25T06:41:21.974Z,10.20
2019-04-25T06:43:54.190Z,10.10
2019-04-25T06:46:43.976Z,9.97
2019-04-25T06:49:24.139Z,7.10
2019-04-25T06:51:54.589Z,7.93
2019-04-25T06:54:26.746Z,8.10
2019-04-25T06:56:57.369Z,7.17
2019-04-25T06:59:28.848Z,8.10
2019-04-25T07:01:59.480Z,6.23
2019-04-25T07:04:29.785Z,7.53
2019-04-25T07:07:09.718Z,7.00
2019-04-25T07:09:34.514Z,9.33
2019-04-25T07:12:04.136Z,7.70
2019-04-25T07:14:36.936Z,7.37
2019-04-25T07:17:06.617Z,8.67
2019-04-25T07:19:36.967Z,10.47
2019-04-25T07:22:08.813Z,11.10
2019-04-25T07:31:42.054Z,12.13
2019-04-25T07:34:25.010Z,6.97
2019-04-25T07:36:55.297Z,10.53
2019-04-25T07:39:25.746Z,6.50
2019-04-25T07:41:56.109Z,9.07
2019-04-25T07:44:38.159Z,8.67
2019-04-25T07:46:58.568Z,9.93
2019-04-25T07:49:28.895Z,11.30
2019-04-25T07:51:59.263Z,6.37
2019-04-25T07:54:29.637Z,10.87
2019-04-25T07:57:00.034Z,8.93
2019-04-25T07:59:30.986Z,10.13
2019-04-25T08:02:03.281Z,8.90
2019-04-25T08:04:35.730Z,7.73
2019-04-25T08:07:06.137Z,6.93
2019-04-25T08:09:37.077Z,9.43
2019-04-25T08:12:08.398Z,11.83
2019-04-25T08:14:46.446Z,6.50
2019-04-25T08:17:19.091Z,7.17
2019-04-25T08:19:49.708Z,8.90
2019-04-25T08:22:20.197Z,8.37
2019-04-25T08:24:50.721Z,7.93
2019-04-25T08:27:21.084Z,8.13
2019-04-25T08:29:51.533Z,8.27
2019-04-25T08:32:22.010Z,9.37
2019-04-25T08:34:54.130Z,10.40
2019-04-25T08:37:24.365Z,8.97
2019-04-25T08:39:54.804Z,8.53
2019-04-25T08:42:25.141Z,14.80
2019-04-25T08:44:55.435Z,8.47
2019-04-25T08:47:25.804Z,7.07
2019-04-25T08:50:08.605Z,9.10
2019-04-25T08:52:38.924Z,6.43
2019-04-25T08:55:27.213Z,7.23
2019-04-25T08:58:19.154Z,6.60
2019-04-25T09:01:05.239Z,9.97
2019-04-25T09:03:42.713Z,9.43
2019-04-25T09:06:14.389Z,9.97
2019-04-25T09:08:46.542Z,8.43
2019-04-25T09:11:17.405Z,7.40
2019-04-25T09:13:47.752Z,9.57
2019-04-25T09:16:18.141Z,8.13
2019-04-25T09:18:48.487Z,9.03
2019-04-25T09:21:18.842Z,11.97
2019-04-25T09:23:49.184Z,11.70
2019-04-25T09:26:19.693Z,8.17
2019-04-25T09:28:50.103Z,11.67
2019-04-25T09:31:20.481Z,9.10
2019-04-25T09:33:54.158Z,11.23
2019-04-25T09:36:25.038Z,9.90
2019-04-25T09:38:57.884Z,8.40
2019-04-25T09:41:28.174Z,6.97
2019-04-25T09:44:02.049Z,9.13
2019-04-25T09:46:36.323Z,9.93
2019-04-25T09:49:15.696Z,7.83
2019-04-25T09:51:53.483Z,10.27
2019-04-25T09:54:48.599Z,7.17
2019-04-25T09:57:46.192Z,10.93
2019-04-25T10:00:36.544Z,9.77
2019-04-25T10:03:07.516Z,8.13
2019-04-25T10:05:38.473Z,5.70
2019-04-25T10:08:09.214Z,8.83
2019-04-25T10:10:40.448Z,8.07
2019-04-25T10:13:11.220Z,9.53
2019-04-25T10:15:57.612Z,9.43
2019-04-25T10:18:28.043Z,8.50
2019-04-25T10:20:58.548Z,10.00
2019-04-25T10:23:28.988Z,10.20
2019-04-25T10:25:59.352Z,9.63
2019-04-25T10:28:29.889Z,7.77
2019-04-25T10:31:00.262Z,9.77
2019-04-25T10:33:30.631Z,10.83
2019-04-25T10:36:01.318Z,8.70
2019-04-25T10:38:33.624Z,10.73
2019-04-25T10:41:04.305Z,8.07
2019-04-25T10:43:35.786Z,8.37
2019-04-25T10:46:06.715Z,9.47
2019-04-25T10:48:37.328Z,8.87
2019-04-25T10:51:07.977Z,9.13
2019-04-25T10:53:38.463Z,7.23
2019-04-25T10:56:08.890Z,11.17
2019-04-25T10:58:40.081Z,12.43
2019-04-25T11:01:10.820Z,7.57
2019-04-25T11:04:04.564Z,10.37
2019-04-25T11:06:35.245Z,9.30
2019-04-25T11:09:07.220Z,8.93
2019-04-25T11:11:37.714Z,7.97
2019-04-25T11:14:08.192Z,10.37
2019-04-25T11:16:38.502Z,11.90
2019-04-25T11:19:08.985Z,8.63
2019-04-25T11:21:39.317Z,13.03
2019-04-25T11:24:09.793Z,10.20
2019-04-25T11:26:40.573Z,8.27
2019-04-25T11:29:13.292Z,6.80
2019-04-25T11:31:48.983Z,11.03
2019-04-25T11:34:20.560Z,9.67
2019-04-25T11:36:50.939Z,10.33
2019-04-25T11:39:43.257Z,11.67
2019-04-25T11:42:15.205Z,10.70
2019-04-25T11:44:46.130Z,11.27
2019-04-25T11:47:16.537Z,10.83
2019-04-25T11:49:47.851Z,10.70
2019-04-25T11:52:27.299Z,9.07
2019-04-25T11:54:54.476Z,9.40
2019-04-25T11:57:25.021Z,8.50
2019-04-25T11:59:55.830Z,11.83
2019-04-25T12:02:27.851Z,11.53
2019-04-25T12:04:58.724Z,8.50
2019-04-25T12:07:29.085Z,11.47
2019-04-25T12:09:59.688Z,8.57
2019-04-25T12:12:30.149Z,15.27
2019-04-25T12:15:00.529Z,10.27
2019-04-25T12:17:30.901Z,11.50
2019-04-25T12:20:01.352Z,8.90
2019-04-25T12:22:31.702Z,8.87
2019-04-25T12:25:02.043Z,12.63
2019-04-25T12:27:32.429Z,11.70
2019-04-25T12:30:05.130Z,13.50
2019-04-25T12:32:35.258Z,10.23
2019-04-25T12:35:07.201Z,9.00
2019-04-25T12:37:37.557Z,12.43
2019-04-25T12:40:09.496Z,11.17
2019-04-25T12:42:39.867Z,12.50
2019-04-25T12:45:34.210Z,10.03
2019-04-25T12:48:04.813Z,14.57
2019-04-25T12:50:35.143Z,10.50
2019-04-25T12:53:05.611Z,7.67
2019-04-25T12:55:36.159Z,12.57
2019-04-25T12:58:06.801Z,9.97
2019-04-25T13:00:47.578Z,14.00
2019-04-25T13:03:09.208Z,11.73
2019-04-25T13:05:39.604Z,15.60
2019-04-25T13:08:09.959Z,10.47
2019-04-25T13:10:44.675Z,11.67
2019-04-25T13:13:16.300Z,10.20
2019-04-25T13:15:47.022Z,14.70
2019-04-25T13:18:17.864Z,14.73
2019-04-25T13:20:48.170Z,10.50
2019-04-25T13:23:18.630Z,9.07
2019-04-25T13:25:49.282Z,10.53
2019-04-25T13:28:31.097Z,15.37
2019-04-25T13:31:14.807Z,12.23
2019-04-25T13:34:01.706Z,9.50
2019-04-25T13:36:34.478Z,11.37
2019-04-25T13:39:10.468Z,13.73
2019-04-25T13:41:41.003Z,9.00
2019-04-25T13:44:11.375Z,9.87
2019-04-25T13:46:43.209Z,13.53
2019-04-25T13:49:14.891Z,11.43
2019-04-25T13:51:45.505Z,10.80
2019-04-25T13:54:15.931Z,12.07
2019-04-25T13:56:46.281Z,10.13
2019-04-25T13:59:16.791Z,10.67
2019-04-25T14:01:47.720Z,8.80
2019-04-25T14:04:18.153Z,13.77
2019-04-25T14:06:48.597Z,13.23
2019-04-25T14:09:21.379Z,10.53
2019-04-25T14:11:51.827Z,11.33
2019-04-25T14:14:22.676Z,10.87
2019-04-25T14:17:17.775Z,7.77
2019-04-25T14:20:15.816Z,11.73
2019-04-25T14:22:46.320Z,14.70
2019-04-25T14:25:18.606Z,9.47
2019-04-25T14:27:48.956Z,13.40
2019-04-25T14:30:22.282Z,10.77
2019-04-25T14:32:53.703Z,12.20
2019-04-25T14:35:24.188Z,12.50
2019-04-25T14:37:54.476Z,8.03
2019-04-25T14:40:26.081Z,11.70
2019-04-25T14:42:57.335Z,13.13
2019-04-25T14:45:40.350Z,13.43
2019-04-25T14:47:59.839Z,13.27
2019-04-25T14:50:30.301Z,11.80
2019-04-25T14:53:00.857Z,10.23
2019-04-25T14:55:39.967Z,11.97
2019-04-25T14:58:14.728Z,14.57
2019-04-25T15:00:46.542Z,17.60
2019-04-25T15:03:17.094Z,9.70
2019-04-25T15:05:47.470Z,12.73
2019-04-25T15:08:18.041Z,10.87
2019-04-25T15:10:48.604Z,13.13
2019-04-25T15:13:18.964Z,13.73
2019-04-25T15:15:49.364Z,8.13
2019-04-25T15:18:19.680Z,13.10
2019-04-25T15:20:50.056Z,10.30
2019-04-25T15:23:20.457Z,10.90
2019-04-25T15:25:50.825Z,12.87
2019-04-25T15:28:21.263Z,10.93
2019-04-25T15:30:51.665Z,12.37
2019-04-25T15:33:22.045Z,13.90
2019-04-25T15:36:14.537Z,11.00
2019-04-25T15:38:50.573Z,12.67
2019-04-25T15:41:37.486Z,11.83
2019-04-25T15:44:26.692Z,15.60
2019-04-25T15:46:58.645Z,12.47
2019-04-25T15:49:29.042Z,8.77
2019-04-25T15:51:59.457Z,14.57
2019-04-25T15:54:29.869Z,13.57
2019-04-25T15:57:00.249Z,11.73
2019-04-25T15:59:30.799Z,14.63
2019-04-25T16:02:07.949Z,12.30
2019-04-25T16:04:33.334Z,14.20
2019-04-25T16:07:03.824Z,10.33
2019-04-25T16:09:34.563Z,12.27
2019-04-25T16:12:06.157Z,10.53
2019-04-25T16:14:36.550Z,11.70
2019-04-25T16:17:07.048Z,16.33
2019-04-25T16:19:37.323Z,14.17
2019-04-25T16:22:07.782Z,11.83
2019-04-25T16:24:38.147Z,11.73
2019-04-25T16:27:08.621Z,16.73
2019-04-25T16:29:38.930Z,13.13
2019-04-25T16:32:20.518Z,15.57
2019-04-25T16:34:44.698Z,10.60
2019-04-25T16:37:15.208Z,11.77
2019-04-25T16:39:45.549Z,22.07
2019-04-25T16:42:15.981Z,27.80
2019-04-25T16:44:46.649Z,16.07
2019-04-25T16:47:18.884Z,10.80
2019-04-25T16:49:49.309Z,14.63
2019-04-25T16:52:20.156Z,14.47
2019-04-25T16:54:50.519Z,12.10
2019-04-25T16:57:20.926Z,14.10
2019-04-25T16:59:51.413Z,13.47
2019-04-25T17:02:32.875Z,9.53
2019-04-25T17:04:56.129Z,12.40
2019-04-25T17:07:26.680Z,16.70
2019-04-25T17:09:57.233Z,14.23
2019-04-25T17:12:28.382Z,15.00
2019-04-25T17:15:06.252Z,15.63
2019-04-25T17:17:45.538Z,10.43
2019-04-25T17:20:21.617Z,13.97
2019-04-25T17:22:52.049Z,22.63
2019-04-25T17:25:23.101Z,10.67
2019-04-25T17:27:53.521Z,14.20
2019-04-25T17:30:24.593Z,13.60
2019-04-25T17:33:16.430Z,17.83
2019-04-25T17:35:58.643Z,10.70
2019-04-25T17:38:44.207Z,14.83
2019-04-25T17:41:17.423Z,15.00
2019-04-25T17:43:48.331Z,11.50
2019-04-25T17:52:13.835Z,12.73
2019-04-25T17:58:14.930Z,11.40
2019-04-25T18:00:46.179Z,16.27
2019-04-25T18:03:21.364Z,48.67
2019-04-25T18:05:53.442Z,94.37
2019-04-25T18:26:13.033Z,66.20
2019-04-25T18:31:42.256Z,29.73
2019-04-25T18:34:18.735Z,35.13
2019-04-25T18:37:16.954Z,42.03
2019-04-25T18:40:05.762Z,22.93
2019-04-25T18:42:58.471Z,20.93
2019-04-25T18:45:31.765Z,14.77
2019-04-25T18:48:04.574Z,15.47
2019-04-25T18:50:37.461Z,17.07
2019-04-25T18:53:34.216Z,14.83
2019-04-25T18:56:24.370Z,16.83
2019-04-25T18:59:13.613Z,15.20
2019-04-25T19:02:05.117Z,20.07
2019-04-25T19:04:43.524Z,15.87
2019-04-25T19:07:22.408Z,16.17
2019-04-25T19:09:47.113Z,16.20
2019-04-25T19:12:18.062Z,22.03
2019-04-25T19:14:48.452Z,18.90
2019-04-25T19:17:18.733Z,29.83
2019-04-25T19:19:49.183Z,14.07
2019-04-25T19:22:19.679Z,25.60
2019-04-25T19:24:50.091Z,12.87
2019-04-25T19:27:24.038Z,13.87
2019-04-25T19:29:53.515Z,17.13
2019-04-25T19:32:24.356Z,26.03
2019-04-25T19:34:54.866Z,31.87
2019-04-25T19:37:25.449Z,19.53
2019-04-25T19:40:22.635Z,23.13
2019-04-25T19:42:57.004Z,16.17
2019-04-25T19:45:27.423Z,19.27
2019-04-25T19:47:57.862Z,31.37
2019-04-25T19:50:28.282Z,29.37
2019-04-25T19:52:58.690Z,27.80
2019-04-25T19:55:29.118Z,32.03
2019-04-25T19:57:59.581Z,29.13
2019-04-25T20:00:30.299Z,25.77
2019-04-25T20:03:22.571Z,30.80
2019-04-25T20:06:30.230Z,32.43
2019-04-25T20:09:10.624Z,27.53
2019-04-25T20:11:45.311Z,28.67
2019-04-25T20:14:15.754Z,28.67
2019-04-25T20:16:47.574Z,30.70
2019-04-25T20:19:17.990Z,21.03
2019-04-25T20:21:48.509Z,28.77
2019-04-25T20:24:18.928Z,28.57
2019-04-25T20:26:50.395Z,30.17
2019-04-25T20:29:20.919Z,24.57
2019-04-25T20:31:51.356Z,27.83
2019-04-25T20:34:21.715Z,25.77
2019-04-25T20:36:52.098Z,23.80
2019-04-25T20:39:22.501Z,26.63
2019-04-25T20:41:53.938Z,23.00
2019-04-25T20:44:24.717Z,22.43
2019-04-25T20:46:55.239Z,23.27
2019-04-25T20:49:25.689Z,23.50
2019-04-25T20:51:56.848Z,20.53
2019-04-25T20:54:27.358Z,20.40
2019-04-25T20:56:57.780Z,21.20
2019-04-25T20:59:28.344Z,20.17
2019-04-25T21:01:59.441Z,33.17
2019-04-25T21:04:44.975Z,21.77
2019-04-25T21:07:15.391Z,29.57
2019-04-25T21:09:45.765Z,34.30
2019-04-25T21:12:16.148Z,29.30
2019-04-25T21:15:11.385Z,25.20
2019-04-25T21:18:15.732Z,29.77
2019-04-25T21:20:46.108Z,18.80
2019-04-25T21:23:16.505Z,29.63
2019-04-25T21:25:46.825Z,27.87
2019-04-25T21:28:17.293Z,25.37
2019-04-25T21:30:47.657Z,21.83
2019-04-25T21:33:18.056Z,24.07
2019-04-25T21:35:48.723Z,24.03
2019-04-25T21:38:19.506Z,27.00
2019-04-25T21:41:11.644Z,19.33
2019-04-25T21:43:46.892Z,18.53
2019-04-25T21:46:17.595Z,23.03
2019-04-25T21:48:48.141Z,19.57
2019-04-25T21:51:34.181Z,21.30
2019-04-25T21:54:04.634Z,22.27
2019-04-25T21:56:35.302Z,22.17
2019-04-25T21:59:05.730Z,22.40
2019-04-25T22:01:39.534Z,18.77
2019-04-25T22:04:10.118Z,22.97
2019-04-25T22:06:40.808Z,20.57
2019-04-25T22:09:17.597Z,20.90
2019-04-25T22:11:48.187Z,22.93
2019-04-25T22:14:18.863Z,18.03
2019-04-25T22:16:50.613Z,19.50
2019-04-25T22:19:21.189Z,21.10
2019-04-25T22:21:52.014Z,19.23
2019-04-25T22:24:22.608Z,20.57
2019-04-25T22:26:56.437Z,14.90
2019-04-25T22:29:27.630Z,18.73
2019-04-25T22:32:07.758Z,24.27
2019-04-25T22:34:59.960Z,20.13
2019-04-25T22:37:30.322Z,20.90
2019-04-25T22:40:01.217Z,27.77
2019-04-25T22:42:31.924Z,28.33
2019-04-25T22:45:03.788Z,28.13
2019-04-25T22:47:34.321Z,23.27
2019-04-25T22:50:04.837Z,24.90
2019-04-25T22:52:35.504Z,24.63
2019-04-25T22:55:06.455Z,23.57
2019-04-25T22:57:37.204Z,21.80
2019-04-25T23:00:11.356Z,19.80
2019-04-25T23:02:54.068Z,23.33
2019-04-25T23:05:28.421Z,21.03
2019-04-25T23:07:59.341Z,21.03
2019-04-25T23:10:30.208Z,18.93
2019-04-25T23:13:00.576Z,22.60
2019-04-25T23:15:30.929Z,18.00
2019-04-25T23:18:01.350Z,18.47
2019-04-25T23:20:31.726Z,18.03
2019-04-25T23:23:04.167Z,17.00
2019-04-25T23:25:52.992Z,20.30
2019-04-25T23:28:25.937Z,22.67
2019-04-25T23:31:30.537Z,17.77
2019-04-25T23:34:01.446Z,17.03
2019-04-25T23:36:31.804Z,15.13
2019-04-25T23:39:02.161Z,19.83
2019-04-25T23:41:33.089Z,20.97
2019-04-25T23:44:03.500Z,19.20
2019-04-25T23:46:34.178Z,19.20
2019-04-25T23:49:05.013Z,19.20
2019-04-25T23:51:35.494Z,21.40
2019-04-25T23:54:07.456Z,16.70
2019-04-25T23:56:38.001Z,22.50
2019-04-25T23:59:09.849Z,19.17
